Time;durP1;ratioP1;P1;durP2;ratioP2;P2;SDS_P1;SDS_P2;PMS_P1;PMS_P2;Temp;Humidity;BMP_temperature;BMP_pressure;BME280_temperature;BME280_humidity;BME280_pressure;Samples;Min_cycle;Max_cycle;Signal;HPM_P1;HPM_P2
2022/08/30 04:11:01;;;;;;;1.05;0.95;;;;;;;22.45;62.07;101264.09;5101858;27;1386101;-83
2022/08/30 04:13:27;;;;;;;4.82;1.95;;;;;;;22.54;61.80;101266.75;5105677;28;20040;-82
2022/08/30 04:15:52;;;;;;;1.33;1.17;;;;;;;22.73;61.30;101267.72;5107185;28;20077;-84
2022/08/30 04:18:18;;;;;;;2.28;1.55;;;;;;;22.91;59.83;101266.09;5090545;28;20024;-87
2022/08/30 04:20:43;;;;;;;1.27;1.17;;;;;;;23.02;59.51;101268.59;5089691;28;20085;-83
2022/08/30 04:23:10;;;;;;;0.80;0.73;;;;;;;23.02;59.50;101258.03;5114634;28;20038;-88
2022/08/30 04:25:36;;;;;;;2.03;1.48;;;;;;;23.21;58.68;101267.75;5109908;28;20106;-83
2022/08/30 04:28:02;;;;;;;2.50;2.05;;;;;;;23.28;58.98;101276.75;5109949;28;20084;-90
2022/08/30 04:30:28;;;;;;;1.15;1.00;;;;;;;23.31;58.66;101279.13;5126348;28;20351;-86
2022/08/30 04:32:53;;;;;;;1.23;1.13;;;;;;;23.23;58.21;101264.97;5110300;28;20492;-86
2022/08/30 04:35:19;;;;;;;1.30;1.00;;;;;;;23.37;58.40;101282.97;5105100;28;20027;-86
2022/08/30 04:37:44;;;;;;;2.17;1.98;;;;;;;23.47;58.09;101279.34;5088149;28;20066;-86
2022/08/30 04:40:10;;;;;;;1.30;1.02;;;;;;;23.52;58.22;101278.94;5088471;28;20028;-88
2022/08/30 04:42:36;;;;;;;2.30;2.08;;;;;;;23.48;57.90;101280.16;5093631;28;20404;-90
2022/08/30 04:45:06;;;;;;;1.42;1.25;;;;;;;23.42;57.84;101276.31;5089439;28;20109;-87
2022/08/30 04:47:32;;;;;;;1.45;1.33;;;;;;;23.53;57.75;101290.31;5074675;28;20052;-91
2022/08/30 04:49:57;;;;;;;1.30;1.15;;;;;;;23.46;58.08;101284.78;5084379;28;20440;-91
2022/08/30 04:52:23;;;;;;;0.70;0.70;;;;;;;23.40;58.06;101277.41;5081817;28;20047;-89
2022/08/30 04:54:55;;;;;;;0.68;0.63;;;;;;;23.44;58.29;101292.00;5065490;28;20029;-83
2022/08/30 04:57:21;;;;;;;2.38;1.35;;;;;;;23.37;58.22;101273.25;5041086;28;20025;-91
2022/08/30 04:59:46;;;;;;;1.02;0.93;;;;;;;23.37;57.97;101267.13;5048776;28;20036;-88
2022/08/30 05:02:12;;;;;;;1.88;1.38;;;;;;;23.50;58.06;101285.31;5064283;28;20020;-88
2022/08/30 05:05:38;;;;;;;1.92;0.93;;;;;;;23.47;57.83;101273.22;5067326;28;20028;-84
2022/08/30 05:07:23;;;;;;;1.33;1.23;;;;;;;23.47;57.67;101283.78;5068068;28;20524;-86
2022/08/30 05:09:48;;;;;;;3.45;0.98;;;;;;;23.52;57.88;101273.66;5084301;28;20084;-89
2022/08/30 05:12:14;;;;;;;5.18;4.68;;;;;;;23.61;57.88;101288.66;5071402;28;20031;-95
2022/08/30 05:14:39;;;;;;;5.32;4.13;;;;;;;23.66;57.76;101294.34;5038280;28;20033;-86
2022/08/30 05:17:05;;;;;;;2.05;1.20;;;;;;;23.64;58.75;101288.38;5069428;28;20020;-84
2022/08/30 05:19:32;;;;;;;1.15;1.05;;;;;;;23.68;58.23;101292.38;5068232;28;20039;-88
2022/08/30 05:21:58;;;;;;;1.30;1.00;;;;;;;23.75;57.33;101285.56;5040876;28;20086;-82
2022/08/30 05:24:24;;;;;;;1.52;1.10;;;;;;;23.88;57.91;101305.53;5037204;28;20032;-85
2022/08/30 05:26:49;;;;;;;1.33;1.20;;;;;;;23.86;57.86;101299.56;5053778;28;20051;-90
2022/08/30 05:29:15;;;;;;;1.63;1.08;;;;;;;24.02;57.55;101305.06;5053939;28;20547;-82
2022/08/30 05:31:42;;;;;;;1.08;1.00;;;;;;;24.05;57.13;101307.41;5029734;28;20025;-81
2022/08/30 05:34:07;;;;;;;1.15;1.05;;;;;;;23.98;57.08;101303.69;5052151;28;20056;-82
2022/08/30 05:36:34;;;;;;;1.75;1.65;;;;;;;24.04;57.26;101308.38;5063345;28;20110;-82
2022/08/30 05:38:59;;;;;;;1.33;1.23;;;;;;;24.13;56.94;101317.25;5053388;28;20031;-86
2022/08/30 05:41:25;;;;;;;0.80;0.75;;;;;;;24.11;57.13;101308.66;5037560;28;20033;-85
2022/08/30 05:43:57;;;;;;;1.67;1.20;;;;;;;23.98;57.17;101282.53;5031518;28;20122;-83
2022/08/30 05:46:23;;;;;;;1.13;1.02;;;;;;;24.17;57.12;101306.22;5036880;28;20417;-86
2022/08/30 05:48:49;;;;;;;1.15;1.05;;;;;;;24.40;57.16;101334.97;5035251;28;20024;-81
2022/08/30 05:51:19;;;;;;;0.82;0.82;;;;;;;24.46;56.61;101307.91;5054190;28;20048;-82
2022/08/30 05:53:45;;;;;;;1.65;1.52;;;;;;;24.48;56.87;101316.53;5047887;28;20174;-81
2022/08/30 05:56:12;;;;;;;2.45;2.20;;;;;;;24.60;56.49;101315.38;5063190;28;20109;-80
2022/08/30 05:58:38;;;;;;;2.13;1.63;;;;;;;24.57;56.48;101310.34;5067189;28;20032;-89
2022/08/30 06:01:03;;;;;;;2.80;2.08;;;;;;;24.75;56.64;101313.84;5049958;28;20033;-85
2022/08/30 06:03:31;;;;;;;2.38;1.55;;;;;;;24.84;55.94;101310.28;5016870;28;20387;-89
2022/08/30 06:05:57;;;;;;;1.30;1.20;;;;;;;24.88;55.58;101314.31;5034230;28;20135;-92
2022/08/30 06:08:23;;;;;;;2.00;1.80;;;;;;;24.94;55.19;101315.50;5056949;28;20486;-87
2022/08/30 06:10:49;;;;;;;1.40;1.17;;;;;;;24.94;55.75;101317.34;5053487;28;20053;-83
2022/08/30 06:13:14;;;;;;;1.30;1.20;;;;;;;24.95;55.42;101308.41;5055310;28;20085;-86
2022/08/30 06:15:42;;;;;;;0.98;0.82;;;;;;;25.09;55.95;101313.22;5033523;28;20474;-82
2022/08/30 06:18:08;;;;;;;2.75;2.35;;;;;;;25.12;55.28;101321.66;5034218;28;20051;-84
2022/08/30 06:20:41;;;;;;;1.10;1.00;;;;;;;25.18;55.44;101320.25;5053304;28;20559;-89
2022/08/30 06:23:07;;;;;;;3.15;2.00;;;;;;;25.31;55.35;101315.38;5055441;28;20055;-85
2022/08/30 06:25:35;;;;;;;2.47;2.20;;;;;;;25.36;54.13;101309.59;5041458;28;20061;-85
2022/08/30 06:28:01;;;;;;;3.65;3.30;;;;;;;25.23;54.21;101302.06;5052757;28;20025;-80
2022/08/30 06:30:26;;;;;;;1.88;1.50;;;;;;;25.44;54.12;101315.78;5033489;28;20039;-89
2022/08/30 06:32:52;;;;;;;1.80;1.48;;;;;;;25.64;54.43;101329.66;5042405;28;20024;-83
2022/08/30 06:35:17;;;;;;;1.08;0.98;;;;;;;25.43;53.98;101302.69;5038664;28;20033;-83
2022/08/30 06:37:43;;;;;;;1.58;1.30;;;;;;;25.68;53.61;101328.38;5076927;28;20087;-84
2022/08/30 06:40:09;;;;;;;1.75;1.50;;;;;;;25.94;53.06;101333.66;5033193;28;20028;-80
2022/08/30 06:42:35;;;;;;;1.30;1.20;;;;;;;25.99;52.68;101330.56;5033406;28;20036;-80
2022/08/30 06:45:02;;;;;;;1.70;1.08;;;;;;;26.05;52.66;101340.50;5035993;28;20032;-81
2022/08/30 06:47:28;;;;;;;1.02;0.93;;;;;;;26.08;52.15;101339.38;5039515;28;20407;-80
2022/08/30 06:49:53;;;;;;;1.80;1.70;;;;;;;25.99;52.57;101335.88;5069456;28;20098;-87
2022/08/30 06:52:19;;;;;;;1.08;0.98;;;;;;;25.75;53.11;101333.88;5052791;28;20028;-85
2022/08/30 06:54:44;;;;;;;1.45;1.35;;;;;;;25.80;52.93;101331.63;5082433;28;20028;-87
2022/08/30 06:57:11;;;;;;;2.38;1.20;;;;;;;25.89;52.75;101341.28;5069131;28;20056;-82
2022/08/30 06:59:37;;;;;;;1.45;1.13;;;;;;;25.83;52.98;101320.69;5053287;28;20174;-83
2022/08/30 07:02:03;;;;;;;1.50;1.25;;;;;;;25.95;52.82;101337.16;5069151;28;20044;-87
2022/08/30 07:04:29;;;;;;;2.00;1.33;;;;;;;25.92;52.78;101340.97;5047326;28;20052;-81
2022/08/30 07:06:54;;;;;;;2.03;1.38;;;;;;;26.03;52.85;101342.50;5071239;28;20466;-80
2022/08/30 07:09:20;;;;;;;0.65;0.65;;;;;;;25.91;52.80;101343.78;5083382;28;20102;-81
2022/08/30 07:11:46;;;;;;;2.28;1.55;;;;;;;25.99;52.28;101338.50;5052591;28;20033;-81
2022/08/30 07:14:11;;;;;;;1.65;1.33;;;;;;;26.04;52.43;101333.56;5060869;28;20028;-83
2022/08/30 07:16:37;;;;;;;1.48;1.13;;;;;;;25.96;52.60;101318.47;5067946;28;20109;-88
2022/08/30 07:19:03;;;;;;;1.13;0.98;;;;;;;25.97;52.80;101322.78;5054202;28;20032;-93
2022/08/30 07:21:37;;;;;;;1.80;1.40;;;;;;;26.00;52.98;101317.13;5059484;28;20028;-83
2022/08/30 07:24:03;;;;;;;1.10;0.75;;;;;;;26.13;52.71;101337.06;5089567;28;20051;-84
2022/08/30 07:26:34;;;;;;;1.48;1.38;;;;;;;26.24;52.78;101337.63;5075209;28;20464;-83
2022/08/30 07:28:59;;;;;;;1.92;1.08;;;;;;;26.28;52.09;101322.22;5052493;28;20085;-80
2022/08/30 07:31:25;;;;;;;1.70;1.20;;;;;;;26.45;51.41;101325.78;5068679;28;20029;-81
2022/08/30 07:33:51;;;;;;;1.45;1.35;;;;;;;26.29;51.75;101316.75;5060928;28;21492;-81
2022/08/30 07:36:16;;;;;;;2.17;1.50;;;;;;;26.33;51.96;101333.19;5052024;28;20444;-81
2022/08/30 07:38:43;;;;;;;3.08;1.75;;;;;;;26.43;52.07;101338.38;5065968;28;20032;-86
2022/08/30 07:41:24;;;;;;;1.63;1.35;;;;;;;26.44;52.05;101332.91;5051693;28;20032;-84
2022/08/30 07:43:49;;;;;;;1.42;1.15;;;;;;;26.44;52.38;101332.91;5036220;28;20024;-89
2022/08/30 07:46:15;;;;;;;1.35;1.20;;;;;;;26.52;51.78;101338.25;5037688;28;20131;-82
2022/08/30 07:48:41;;;;;;;2.85;2.08;;;;;;;26.57;51.58;101335.13;5077809;28;20059;-85
2022/08/30 07:51:16;;;;;;;2.03;1.50;;;;;;;26.45;52.02;101310.72;5070238;28;20028;-82
2022/08/30 07:53:41;;;;;;;1.95;1.85;;;;;;;26.77;52.13;101330.34;5079515;28;20062;-82
2022/08/30 07:56:07;;;;;;;1.38;1.27;;;;;;;26.82;50.88;101304.13;5071263;28;20063;-87
2022/08/30 07:58:32;;;;;;;2.33;2.13;;;;;;;27.13;50.73;101330.91;5088032;28;21144;-82
2022/08/30 08:00:58;;;;;;;2.15;1.95;;;;;;;27.25;50.48;101326.09;5086044;28;21207;-83
2022/08/30 08:03:25;;;;;;;2.10;1.38;;;;;;;27.39;50.55;101326.25;5051030;28;20040;-86
2022/08/30 08:05:52;;;;;;;2.50;1.55;;;;;;;27.44;49.25;101320.44;5069138;28;20025;-81
2022/08/30 08:08:17;;;;;;;1.80;1.60;;;;;;;27.56;49.53;101320.91;5040189;28;20024;-83
2022/08/30 08:10:43;;;;;;;1.65;1.42;;;;;;;27.56;49.12;101313.75;5050701;28;20115;-85
2022/08/30 08:13:08;;;;;;;2.50;2.13;;;;;;;27.67;48.52;101305.47;5067641;28;20032;-86
2022/08/30 08:15:34;;;;;;;1.92;1.75;;;;;;;27.70;48.41;101317.56;5084322;28;20028;-86
2022/08/30 08:18:00;;;;;;;5.18;2.55;;;;;;;27.78;48.21;101322.06;5087020;28;20028;-84
2022/08/30 08:20:25;;;;;;;2.63;1.30;;;;;;;27.67;48.56;101308.13;5058221;28;20032;-86
2022/08/30 08:22:51;;;;;;;2.22;1.60;;;;;;;27.79;48.74;101321.03;5069954;28;20516;-87
2022/08/30 08:25:17;;;;;;;2.35;1.50;;;;;;;27.80;48.24;101333.34;5052086;28;20029;-85
2022/08/30 08:27:42;;;;;;;4.10;2.30;;;;;;;27.78;48.00;101324.72;5051426;28;20025;-86
2022/08/30 08:30:08;;;;;;;1.92;1.70;;;;;;;27.82;48.46;101315.38;5076795;28;20029;-84
2022/08/30 08:32:34;;;;;;;2.00;1.73;;;;;;;27.94;48.12;101324.66;5062021;28;20024;-82
2022/08/30 08:34:59;;;;;;;9.60;8.13;;;;;;;27.99;47.91;101324.97;5067271;28;20020;-82
2022/08/30 08:37:26;;;;;;;4.05;3.00;;;;;;;28.03;47.58;101342.25;5069709;28;20036;-82
2022/08/30 08:39:52;;;;;;;1.67;1.55;;;;;;;27.91;48.17;101339.13;5051801;28;20036;-81
2022/08/30 08:42:30;;;;;;;1.65;1.45;;;;;;;28.02;48.00;101337.91;5075212;28;20552;-85
2022/08/30 08:45:04;;;;;;;2.50;1.67;;;;;;;28.14;47.71;101336.56;5080453;28;20098;-84
2022/08/30 08:47:40;;;;;;;2.28;1.75;;;;;;;28.14;48.42;101339.22;5044550;28;20053;-90
2022/08/30 08:50:16;;;;;;;1.55;1.15;;;;;;;28.16;48.16;101333.72;5080326;28;20054;-87
2022/08/30 08:55:29;;;;;;;1.92;1.70;;;;;;;28.20;47.91;101329.69;5085760;28;20079;-89
2022/08/30 08:57:55;;;;;;;2.08;1.50;;;;;;;28.31;47.49;101333.84;5079809;28;20465;-89
2022/08/30 09:00:21;;;;;;;2.05;1.52;;;;;;;28.41;47.40;101340.59;5092564;28;20081;-84
2022/08/30 09:02:52;;;;;;;3.17;1.90;;;;;;;28.43;47.28;101329.81;5073802;28;20024;-83
2022/08/30 09:05:19;;;;;;;2.40;2.20;;;;;;;28.45;46.75;101338.44;5053849;28;20122;-82
2022/08/30 09:07:48;;;;;;;2.78;2.25;;;;;;;28.52;47.40;101347.41;5055096;28;20039;-82
2022/08/30 09:10:13;;;;;;;2.33;1.80;;;;;;;28.52;47.66;101336.75;5056167;28;20053;-83
2022/08/30 09:12:39;;;;;;;2.85;2.08;;;;;;;28.56;47.09;101340.69;5071395;28;20112;-86
2022/08/30 09:15:26;;;;;;;1.92;1.67;;;;;;;28.61;47.28;101343.66;5090260;28;20028;-84
2022/08/30 09:17:53;;;;;;;1.92;1.67;;;;;;;28.65;47.13;101337.00;5082117;28;20028;-83
2022/08/30 09:20:26;;;;;;;2.28;1.50;;;;;;;28.64;47.78;101347.81;5086220;28;20029;-84
2022/08/30 09:22:52;;;;;;;2.30;2.00;;;;;;;28.63;47.34;101341.66;5073839;28;20044;-81
2022/08/30 09:25:31;;;;;;;2.38;1.75;;;;;;;28.68;47.55;101354.44;5090777;28;20409;-84
2022/08/30 09:28:10;;;;;;;2.05;1.33;;;;;;;28.81;46.40;101355.53;5078576;28;20078;-84
2022/08/30 09:30:36;;;;;;;1.83;1.50;;;;;;;28.72;45.83;101340.63;5084607;28;20032;-91
2022/08/30 09:33:06;;;;;;;3.45;2.10;;;;;;;28.75;46.31;101358.88;5088632;28;20111;-82
2022/08/30 09:35:33;;;;;;;1.85;1.58;;;;;;;28.92;46.93;101356.16;5071324;28;20107;-82
2022/08/30 09:38:09;;;;;;;2.38;1.80;;;;;;;28.82;47.73;101343.03;5070514;28;20073;-81
2022/08/30 09:40:43;;;;;;;1.73;1.50;;;;;;;28.88;45.88;101349.47;5070693;28;20456;-88
2022/08/30 09:43:16;;;;;;;1.92;1.40;;;;;;;28.96;46.35;101349.47;5082651;28;20064;-82
2022/08/30 09:45:46;;;;;;;2.55;1.80;;;;;;;28.96;46.56;101346.78;5070957;28;20478;-82
2022/08/30 09:48:39;;;;;;;1.83;1.58;;;;;;;28.98;45.80;101340.28;5048799;28;20052;-85
2022/08/30 09:51:10;;;;;;;1.67;1.35;;;;;;;28.99;45.73;101349.09;5085497;28;20063;-84
2022/08/30 09:53:54;;;;;;;1.38;1.27;;;;;;;28.80;46.26;101318.41;5084340;28;20032;-81
2022/08/30 09:56:24;;;;;;;2.05;1.58;;;;;;;28.93;46.13;101337.34;5085045;28;20118;-81
2022/08/30 09:59:05;;;;;;;2.40;1.80;;;;;;;29.00;46.30;101343.59;5079792;28;20482;-81
2022/08/30 10:01:46;;;;;;;2.55;1.98;;;;;;;29.11;45.94;101337.88;5071182;28;20078;-81
2022/08/30 10:04:31;;;;;;;2.10;1.80;;;;;;;29.15;46.28;101338.31;5053750;28;20043;-81
2022/08/30 10:07:33;;;;;;;2.17;1.58;;;;;;;29.06;46.37;101334.06;5072087;28;20600;-82
2022/08/30 10:10:16;;;;;;;1.67;1.40;;;;;;;29.22;46.32;101341.09;5079587;28;20075;-82
2022/08/30 10:13:00;;;;;;;2.30;1.75;;;;;;;29.24;46.12;101313.25;5085727;28;20028;-90
2022/08/30 10:15:34;;;;;;;2.20;1.65;;;;;;;29.67;45.05;101332.19;5069966;28;20562;-82
2022/08/30 10:18:15;;;;;;;2.80;2.08;;;;;;;29.93;45.06;101329.06;5069738;28;20058;-87
2022/08/30 10:21:00;;;;;;;2.22;1.67;;;;;;;30.05;44.07;101303.56;5086764;28;20210;-86
2022/08/30 10:23:31;;;;;;;1.52;1.25;;;;;;;30.16;43.43;101315.63;5082768;28;20028;-83
2022/08/30 10:26:32;;;;;;;2.22;1.60;;;;;;;30.32;43.63;101319.94;5070270;28;20024;-88
2022/08/30 10:29:06;;;;;;;3.80;2.33;;;;;;;30.26;44.08;101294.81;5069169;28;20064;-84
2022/08/30 10:31:48;;;;;;;2.28;1.90;;;;;;;30.52;43.95;101302.31;5054357;28;20501;-86
2022/08/30 10:34:20;;;;;;;2.30;1.75;;;;;;;30.59;43.54;101303.22;5083405;28;20501;-84
2022/08/30 10:36:49;;;;;;;2.30;1.75;;;;;;;30.85;42.93;101313.34;5085938;28;20051;-81
2022/08/30 10:39:21;;;;;;;2.35;1.88;;;;;;;30.95;42.51;101308.50;5068171;28;20052;-85
2022/08/30 10:41:49;;;;;;;;;;;;;;;31.10;42.10;101303.09;5062139;28;20028;-84
2022/08/30 10:44:21;;;;;;;2.33;1.98;;;;;;;30.79;42.19;101288.22;5081001;28;19984;-86
2022/08/30 10:47:09;;;;;;;2.00;1.60;;;;;;;30.91;42.66;101301.91;5082948;28;20145;-88
2022/08/30 10:49:41;;;;;;;2.22;1.85;;;;;;;30.77;41.90;101284.91;5054330;28;20025;-82
2022/08/30 10:52:29;;;;;;;3.13;2.17;;;;;;;30.76;41.01;101293.94;5061847;28;20043;-81
2022/08/30 10:55:21;;;;;;;2.28;2.08;;;;;;;30.81;40.63;101282.69;5055597;28;20537;-83
2022/08/30 10:57:46;;;;;;;2.03;1.75;;;;;;;30.98;40.58;101284.09;5058339;28;20039;-84
2022/08/30 11:00:24;;;;;;;2.33;1.83;;;;;;;31.09;40.70;101283.56;5069036;28;20412;-83
2022/08/30 11:02:55;;;;;;;2.70;2.00;;;;;;;31.23;40.38;101286.34;5054467;28;20028;-89
2022/08/30 11:05:39;;;;;;;3.35;1.83;;;;;;;31.26;39.76;101272.59;5090573;28;20024;-88
2022/08/30 11:08:27;;;;;;;2.85;1.75;;;;;;;31.23;39.86;101259.63;5089237;28;20085;-84
2022/08/30 11:11:00;;;;;;;2.95;2.22;;;;;;;31.38;39.56;101265.69;5071249;28;20108;-89
2022/08/30 11:13:28;;;;;;;5.22;3.90;;;;;;;31.49;38.22;101259.78;5064861;28;20080;-85
2022/08/30 11:16:04;;;;;;;2.40;1.92;;;;;;;31.72;38.28;101267.50;5061429;28;20036;-84
2022/08/30 11:18:51;;;;;;;2.38;1.70;;;;;;;31.77;38.05;101258.94;5087477;28;20024;-87
2022/08/30 11:21:37;;;;;;;3.72;2.83;;;;;;;31.75;38.01;101260.94;5065183;28;20036;-83
2022/08/30 11:24:19;;;;;;;2.72;2.17;;;;;;;31.72;37.63;101239.94;5054950;28;20401;-83
2022/08/30 11:26:48;;;;;;;3.33;2.20;;;;;;;31.89;37.44;101246.63;5052292;28;20556;-83
2022/08/30 11:29:28;;;;;;;2.33;1.90;;;;;;;32.07;36.48;101236.22;5086036;28;20017;-87
2022/08/30 11:31:58;;;;;;;3.50;2.20;;;;;;;32.07;37.12;101228.19;5079371;28;20028;-88
2022/08/30 11:34:45;;;;;;;2.42;1.60;;;;;;;32.09;36.95;101228.78;5069086;28;20035;-89
2022/08/30 11:37:10;;;;;;;2.58;2.05;;;;;;;32.02;36.74;101225.28;5073079;28;20028;-86
2022/08/30 11:39:42;;;;;;;2.40;1.67;;;;;;;32.00;37.27;101219.31;5089716;28;20466;-82
2022/08/30 11:42:32;;;;;;;3.58;2.42;;;;;;;32.22;36.32;101210.09;5078700;28;20024;-86
2022/08/30 11:45:22;;;;;;;2.63;1.83;;;;;;;32.14;35.42;101207.59;5062917;28;20048;-86
2022/08/30 11:47:49;;;;;;;2.40;1.88;;;;;;;32.08;35.17;101189.69;5074149;28;20136;-89
2022/08/30 11:50:53;;;;;;;2.50;1.83;;;;;;;32.25;34.18;101192.78;5067259;28;20555;-84
2022/08/30 11:53:29;;;;;;;2.03;1.77;;;;;;;32.44;33.74;101186.66;5045449;28;20091;-84
2022/08/30 11:56:16;;;;;;;4.10;2.30;;;;;;;32.46;33.59;101181.94;5030137;28;20510;-83
2022/08/30 11:58:52;;;;;;;2.20;1.58;;;;;;;32.59;32.92;101188.31;5075553;28;20052;-85
2022/08/30 12:01:19;;;;;;;1.85;1.67;;;;;;;32.78;32.55;101180.28;5067793;28;20046;-85
2022/08/30 12:04:00;;;;;;;2.78;1.65;;;;;;;32.87;31.63;101180.09;5050516;28;20035;-85
2022/08/30 12:06:42;;;;;;;1.58;1.40;;;;;;;32.92;31.81;101177.59;5045924;28;20024;-82
2022/08/30 12:09:15;;;;;;;3.83;1.55;;;;;;;32.97;30.94;101172.44;5071891;28;20036;-84
2022/08/30 12:11:52;;;;;;;2.03;1.63;;;;;;;32.96;29.95;101168.94;5068527;28;20063;-86
2022/08/30 12:14:39;;;;;;;3.40;2.88;;;;;;;33.16;30.46;101178.81;5067696;28;20029;-83
2022/08/30 12:20:20;;;;;;;5.32;3.15;;;;;;;33.11;30.31;101168.69;5056257;28;20082;-85
2022/08/30 12:22:45;;;;;;;2.10;1.90;;;;;;;33.21;31.16;101169.06;5069066;28;20119;-90
2022/08/30 12:25:29;;;;;;;3.45;2.03;;;;;;;33.05;33.67;101164.19;5068219;28;20040;-86
2022/08/30 12:28:17;;;;;;;2.80;1.90;;;;;;;32.73;35.64;101147.09;5068686;28;20115;-84
2022/08/30 12:30:43;;;;;;;3.55;2.15;;;;;;;32.59;36.35;101146.28;5051996;28;20055;-88
2022/08/30 12:33:10;;;;;;;2.67;2.15;;;;;;;32.63;36.48;101155.53;5092704;28;20477;-82
2022/08/30 12:35:37;;;;;;;2.55;1.90;;;;;;;32.44;36.65;101132.28;5091599;28;20032;-83
2022/08/30 12:38:07;;;;;;;2.30;1.90;;;;;;;32.39;36.56;101140.13;5057710;28;20021;-85
2022/08/30 12:40:33;;;;;;;2.78;2.35;;;;;;;32.21;36.28;101130.81;5093052;28;20028;-82
2022/08/30 12:43:04;;;;;;;1.90;1.70;;;;;;;32.29;35.99;101120.94;5092434;28;20529;-81
2022/08/30 12:45:33;;;;;;;2.70;2.00;;;;;;;32.40;36.31;101136.41;5092486;28;20485;-89
2022/08/30 12:48:09;;;;;;;2.28;1.85;;;;;;;32.20;36.83;101141.72;5057534;28;20410;-83
2022/08/30 12:50:50;;;;;;;2.42;2.13;;;;;;;32.06;36.46;101130.19;5077974;28;20036;-88
2022/08/30 12:53:27;;;;;;;3.22;2.25;;;;;;;32.00;37.46;101131.00;5091619;28;20020;-83
2022/08/30 12:55:58;;;;;;;2.47;2.00;;;;;;;31.73;37.18;101110.53;5065498;28;20051;-86
2022/08/30 12:58:52;;;;;;;2.28;1.80;;;;;;;31.98;37.46;101142.94;5072480;28;20021;-84
2022/08/30 13:01:25;;;;;;;1.67;1.38;;;;;;;31.87;37.65;101147.03;5064396;28;20074;-92
2022/08/30 13:04:20;;;;;;;3.97;2.33;;;;;;;31.69;37.74;101132.34;5071824;28;20089;-83
2022/08/30 13:06:59;;;;;;;3.58;2.45;;;;;;;31.68;37.79;101124.53;5079155;28;20110;-83
2022/08/30 13:09:36;;;;;;;3.28;2.65;;;;;;;31.63;37.98;101124.28;5088129;28;20079;-83
2022/08/30 13:12:28;;;;;;;2.05;1.70;;;;;;;31.74;37.54;101121.03;5075750;28;20028;-82
2022/08/30 13:15:08;;;;;;;;;;;;;;;31.81;37.31;101115.72;5090344;28;20119;-82
2022/08/30 13:17:33;;;;;;;2.40;2.00;;;;;;;31.85;37.45;101116.97;5092262;28;19969;-83
2022/08/30 13:20:25;;;;;;;2.45;2.25;;;;;;;31.75;37.33;101106.66;5091634;28;20024;-84
2022/08/30 13:23:05;;;;;;;2.58;2.13;;;;;;;31.81;37.76;101107.69;5072602;28;20039;-83
2022/08/30 13:25:31;;;;;;;2.47;2.20;;;;;;;31.85;37.61;101092.88;5091244;28;20097;-84
2022/08/30 13:27:56;;;;;;;3.00;2.35;;;;;;;31.77;38.06;101093.91;5080580;28;20062;-82
2022/08/30 13:30:22;;;;;;;3.28;2.63;;;;;;;31.81;37.64;101105.03;5065121;28;20033;-84
2022/08/30 13:32:47;;;;;;;3.60;2.47;;;;;;;31.61;37.96;101084.38;5083121;28;20048;-83
2022/08/30 13:35:13;;;;;;;2.63;1.85;;;;;;;31.63;37.99;101093.00;5087887;28;20040;-84
2022/08/30 13:37:40;;;;;;;2.00;1.55;;;;;;;31.64;37.95;101100.00;5070339;28;20493;-83
2022/08/30 13:40:07;;;;;;;4.22;2.38;;;;;;;31.63;37.96;101086.84;5056092;28;20032;-85
2022/08/30 13:42:33;;;;;;;2.65;2.13;;;;;;;31.66;37.69;101103.31;5054669;28;20036;-85
2022/08/30 13:44:58;;;;;;;3.13;2.35;;;;;;;31.57;38.22;101093.00;5055124;28;20047;-81
2022/08/30 13:47:24;;;;;;;2.65;2.28;;;;;;;31.66;37.75;101097.97;5038226;28;20052;-80
2022/08/30 13:49:49;;;;;;;2.88;1.98;;;;;;;31.68;37.81;101098.59;5070896;28;20024;-81
2022/08/30 13:52:18;;;;;;;2.28;1.67;;;;;;;31.53;37.68;101083.72;5070728;28;20032;-81
2022/08/30 13:54:45;;;;;;;2.92;1.80;;;;;;;31.63;37.75;101094.88;5051312;28;20048;-81
2022/08/30 13:57:10;;;;;;;2.33;1.75;;;;;;;31.66;37.37;101092.63;5070511;28;20043;-81
2022/08/30 13:59:36;;;;;;;2.92;2.08;;;;;;;31.51;37.60;101078.59;5053927;28;20028;-84
2022/08/30 14:02:01;;;;;;;2.65;2.20;;;;;;;31.54;38.31;101088.88;5070250;28;20029;-84
2022/08/30 14:04:27;;;;;;;3.33;2.33;;;;;;;31.36;38.28;101067.22;5086275;28;20115;-80
2022/08/30 14:06:53;;;;;;;2.58;1.92;;;;;;;31.52;37.63;101085.59;5070704;28;20028;-80
2022/08/30 14:09:19;;;;;;;2.67;1.85;;;;;;;31.53;37.86;101078.38;5087285;28;20060;-79
2022/08/30 14:11:44;;;;;;;2.60;2.15;;;;;;;31.47;38.05;101088.06;5054607;28;20060;-79
2022/08/30 14:14:10;;;;;;;3.22;2.08;;;;;;;31.60;36.82;101088.06;5070280;28;20513;-80
2022/08/30 14:16:37;;;;;;;2.85;2.15;;;;;;;31.57;36.76;101077.78;5071187;28;20024;-80
2022/08/30 14:19:02;;;;;;;5.45;2.45;;;;;;;31.59;37.26;101089.09;5054175;28;20119;-79
2022/08/30 14:21:28;;;;;;;2.17;1.92;;;;;;;31.40;37.95;101066.63;5054492;28;20111;-79
2022/08/30 14:23:57;;;;;;;2.63;1.80;;;;;;;31.52;37.93;101074.88;5070807;28;20021;-80
2022/08/30 14:26:27;;;;;;;2.35;1.38;;;;;;;31.61;37.63;101084.38;5052850;28;20024;-80
2022/08/30 14:28:53;;;;;;;3.38;2.05;;;;;;;31.59;37.32;101075.75;5070470;28;20107;-79
2022/08/30 14:31:19;;;;;;;2.97;2.08;;;;;;;31.62;36.44;101091.38;5072149;28;20074;-79
2022/08/30 14:33:44;;;;;;;2.47;2.20;;;;;;;31.49;36.84;101074.47;5054084;28;20040;-79
2022/08/30 14:36:11;;;;;;;3.17;1.67;;;;;;;31.57;36.34;101093.84;5053707;28;20059;-84
2022/08/30 14:38:36;;;;;;;1.55;1.40;;;;;;;31.46;36.88;101089.06;5035760;28;20032;-89
2022/08/30 14:41:03;;;;;;;5.15;2.15;;;;;;;31.39;37.43;101085.56;5051960;28;20538;-87
2022/08/30 14:43:29;;;;;;;2.40;2.00;;;;;;;31.46;37.23;101080.22;5035494;28;20389;-88
2022/08/30 14:45:57;;;;;;;1.92;1.60;;;;;;;31.41;37.91;101080.81;5051574;28;20039;-87
2022/08/30 14:48:22;;;;;;;2.15;1.77;;;;;;;31.34;38.70;101090.66;5051974;28;20025;-87
2022/08/30 14:50:48;;;;;;;3.28;2.08;;;;;;;31.25;39.33;101083.84;5035394;28;20036;-87
2022/08/30 14:53:13;;;;;;;2.65;2.00;;;;;;;31.16;39.68;101093.84;5069875;28;20028;-87
2022/08/30 14:55:39;;;;;;;1.92;1.52;;;;;;;31.10;39.56;101097.31;5053251;28;20029;-87
2022/08/30 14:58:05;;;;;;;2.80;2.08;;;;;;;31.05;39.89;101089.06;5053841;28;20484;-87
2022/08/30 15:00:31;;;;;;;2.08;1.88;;;;;;;30.76;41.05;101104.31;5053607;28;20158;-87
2022/08/30 15:02:56;;;;;;;2.38;1.85;;;;;;;30.77;40.43;101102.47;5053413;28;20147;-87
2022/08/30 15:05:22;;;;;;;2.65;2.13;;;;;;;30.71;40.50;101092.56;5053382;28;20028;-87
2022/08/30 15:07:49;;;;;;;2.47;2.15;;;;;;;30.60;41.41;101090.41;5037028;28;20919;-87
2022/08/30 15:10:17;;;;;;;2.75;2.47;;;;;;;30.67;41.46;101085.97;5053612;28;20044;-87
2022/08/30 15:12:45;;;;;;;3.00;2.28;;;;;;;30.45;41.78;101083.31;5069828;28;20448;-87
2022/08/30 15:15:10;;;;;;;2.40;2.17;;;;;;;30.68;40.86;101098.28;5053878;28;20056;-87
2022/08/30 15:17:36;;;;;;;3.00;2.47;;;;;;;30.42;41.09;101082.91;5053469;28;20512;-87
2022/08/30 15:20:02;;;;;;;3.88;2.65;;;;;;;30.36;41.61;101076.47;5070110;28;20033;-87
2022/08/30 15:22:28;;;;;;;2.58;2.20;;;;;;;30.37;41.96;101090.66;5036718;28;20031;-88
2022/08/30 15:24:54;;;;;;;3.20;2.63;;;;;;;30.30;42.10;101085.28;5053007;28;20033;-87
2022/08/30 15:27:20;;;;;;;2.72;2.33;;;;;;;30.42;41.19;101107.75;5069958;28;20120;-87
2022/08/30 15:29:45;;;;;;;2.85;2.40;;;;;;;30.35;41.20;101092.69;5036447;28;20107;-87
2022/08/30 15:32:11;;;;;;;2.97;2.38;;;;;;;30.20;41.94;101084.78;5052725;28;20033;-87
2022/08/30 15:34:36;;;;;;;2.95;2.60;;;;;;;30.16;42.19;101104.84;5052928;28;20028;-87
2022/08/30 15:37:03;;;;;;;3.10;2.78;;;;;;;30.09;42.68;101109.28;5053129;28;20463;-87
2022/08/30 15:39:29;;;;;;;3.00;2.40;;;;;;;30.05;43.11;101116.00;5053663;28;20032;-87
2022/08/30 15:41:55;;;;;;;2.83;2.40;;;;;;;30.02;43.48;101121.72;5069779;28;20090;-87
2022/08/30 15:44:20;;;;;;;2.65;2.15;;;;;;;29.90;43.94;101130.22;5069839;28;20028;-87
2022/08/30 15:46:46;;;;;;;4.43;2.42;;;;;;;29.85;43.93;101129.13;5069362;28;20020;-87
2022/08/30 15:49:14;;;;;;;2.88;2.17;;;;;;;29.86;44.04;101131.59;5069600;28;20077;-87
2022/08/30 15:51:39;;;;;;;2.20;1.77;;;;;;;29.69;44.71;101120.38;5053142;28;20086;-87
2022/08/30 15:54:05;;;;;;;3.70;2.80;;;;;;;29.78;44.66;101133.56;5069308;28;20111;-87
2022/08/30 15:56:31;;;;;;;3.40;2.13;;;;;;;29.67;45.27;101117.03;5053028;28;20024;-87